sensor_id;sensor_type;location;lat;lon;timestamp;pressure;altitude;pressure_sealevel;temperature;humidity
69971;BME280;57301;50.328;8.542;2023-09-18T00:01:04;97874.22;;;16.90;91.70
69971;BME280;57301;50.328;8.542;2023-09-18T00:03:32;97873.81;;;16.80;92.16
69971;BME280;57301;50.328;8.542;2023-09-18T00:05:58;97864.50;;;16.83;92.24
69971;BME280;57301;50.328;8.542;2023-09-18T00:08:25;97866.16;;;16.84;93.54
69971;BME280;57301;50.328;8.542;2023-09-18T00:10:53;97866.16;;;16.71;93.61
69971;BME280;57301;50.328;8.542;2023-09-18T00:13:20;97856.00;;;16.79;92.92
69971;BME280;57301;50.328;8.542;2023-09-18T00:15:47;97859.28;;;16.68;93.06
69971;BME280;57301;50.328;8.542;2023-09-18T00:18:15;97855.78;;;16.81;91.47
69971;BME280;57301;50.328;8.542;2023-09-18T00:20:42;97853.53;;;16.71;92.12
69971;BME280;57301;50.328;8.542;2023-09-18T00:23:09;97842.53;;;16.79;91.88
69971;BME280;57301;50.328;8.542;2023-09-18T00:25:36;97843.56;;;16.52;92.60
69971;BME280;57301;50.328;8.542;2023-09-18T00:28:03;97840.66;;;16.53;91.82
69971;BME280;57301;50.328;8.542;2023-09-18T00:30:30;97839.63;;;16.34;92.71
69971;BME280;57301;50.328;8.542;2023-09-18T00:32:56;97839.41;;;16.49;92.33
69971;BME280;57301;50.328;8.542;2023-09-18T00:35:23;97831.97;;;16.58;90.97
69971;BME280;57301;50.328;8.542;2023-09-18T00:37:50;97830.94;;;16.46;90.63
69971;BME280;57301;50.328;8.542;2023-09-18T00:40:16;97837.16;;;16.33;91.50
69971;BME280;57301;50.328;8.542;2023-09-18T00:42:43;97828.88;;;16.28;91.78
69971;BME280;57301;50.328;8.542;2023-09-18T00:45:09;97825.13;;;16.49;90.92
69971;BME280;57301;50.328;8.542;2023-09-18T00:47:36;97811.06;;;16.47;92.07
69971;BME280;57301;50.328;8.542;2023-09-18T00:50:04;97808.97;;;16.55;91.42
69971;BME280;57301;50.328;8.542;2023-09-18T00:52:33;97812.28;;;16.37;92.51
69971;BME280;57301;50.328;8.542;2023-09-18T00:55:00;97804.44;;;16.36;91.56
69971;BME280;57301;50.328;8.542;2023-09-18T00:57:28;97799.66;;;16.31;91.75
69971;BME280;57301;50.328;8.542;2023-09-18T00:59:54;97802.38;;;16.18;92.64
69971;BME280;57301;50.328;8.542;2023-09-18T01:02:21;97801.53;;;16.31;92.67
69971;BME280;57301;50.328;8.542;2023-09-18T01:04:49;97799.66;;;16.31;92.24
69971;BME280;57301;50.328;8.542;2023-09-18T01:07:15;97793.06;;;16.27;91.39
69971;BME280;57301;50.328;8.542;2023-09-18T01:09:42;97788.31;;;16.03;92.25
69971;BME280;57301;50.328;8.542;2023-09-18T01:12:22;97794.03;;;15.67;94.92
69971;BME280;57301;50.328;8.542;2023-09-18T01:15:35;97790.09;;;15.76;93.64
69971;BME280;57301;50.328;8.542;2023-09-18T01:18:03;97791.56;;;15.72;93.50
69971;BME280;57301;50.328;8.542;2023-09-18T01:20:30;97791.56;;;15.72;94.03
69971;BME280;57301;50.328;8.542;2023-09-18T01:22:57;97792.94;;;15.61;94.28
69971;BME280;57301;50.328;8.542;2023-09-18T01:25:23;97782.59;;;15.58;94.98
69971;BME280;57301;50.328;8.542;2023-09-18T01:27:50;97784.06;;;15.54;95.48
69971;BME280;57301;50.328;8.542;2023-09-18T01:30:18;97788.16;;;15.50;94.56
69971;BME280;57301;50.328;8.542;2023-09-18T01:32:46;97780.09;;;15.43;94.83
69971;BME280;57301;50.328;8.542;2023-09-18T01:35:14;97783.75;;;15.22;96.17
69971;BME280;57301;50.328;8.542;2023-09-18T01:37:41;97783.03;;;15.07;97.79
69971;BME280;57301;50.328;8.542;2023-09-18T01:40:09;97760.13;;;15.11;98.39
69971;BME280;57301;50.328;8.542;2023-09-18T01:42:37;97762.47;;;15.34;99.83
69971;BME280;57301;50.328;8.542;2023-09-18T01:45:05;97758.59;;;15.50;99.55
69971;BME280;57301;50.328;8.542;2023-09-18T01:47:32;97755.56;;;15.66;98.72
69971;BME280;57301;50.328;8.542;2023-09-18T01:50:03;97770.25;;;15.83;98.31
69971;BME280;57301;50.328;8.542;2023-09-18T01:52:31;97753.34;;;15.96;97.97
69971;BME280;57301;50.328;8.542;2023-09-18T01:54:58;97746.50;;;16.07;98.56
69971;BME280;57301;50.328;8.542;2023-09-18T01:57:24;97759.31;;;15.92;99.47
69971;BME280;57301;50.328;8.542;2023-09-18T01:59:51;97746.72;;;15.85;99.75
69971;BME280;57301;50.328;8.542;2023-09-18T02:02:18;97754.97;;;15.84;99.05
69971;BME280;57301;50.328;8.542;2023-09-18T02:05:05;97752.69;;;15.94;97.17
69971;BME280;57301;50.328;8.542;2023-09-18T02:07:35;97755.59;;;15.86;97.32
69971;BME280;57301;50.328;8.542;2023-09-18T02:10:02;97763.06;;;15.84;96.65
69971;BME280;57301;50.328;8.542;2023-09-18T02:12:29;97763.22;;;15.82;96.82
69971;BME280;57301;50.328;8.542;2023-09-18T02:14:56;97752.69;;;15.74;97.01
69971;BME280;57301;50.328;8.542;2023-09-18T02:17:24;97750.63;;;15.90;98.00
69971;BME280;57301;50.328;8.542;2023-09-18T02:19:51;97755.59;;;15.93;97.79
69971;BME280;57301;50.328;8.542;2023-09-18T02:22:17;97753.75;;;16.00;97.65
69971;BME280;57301;50.328;8.542;2023-09-18T02:24:44;97755.59;;;16.19;97.03
69971;BME280;57301;50.328;8.542;2023-09-18T02:27:10;97772.59;;;16.33;95.87
69971;BME280;57301;50.328;8.542;2023-09-18T02:29:38;97775.66;;;16.36;96.57
69971;BME280;57301;50.328;8.542;2023-09-18T02:32:04;97786.63;;;16.48;96.49
69971;BME280;57301;50.328;8.542;2023-09-18T02:34:31;97794.91;;;16.60;96.30
69971;BME280;57301;50.328;8.542;2023-09-18T02:36:57;97794.09;;;16.53;97.71
69971;BME280;57301;50.328;8.542;2023-09-18T02:39:24;97783.94;;;16.55;97.92
69971;BME280;57301;50.328;8.542;2023-09-18T02:41:50;97788.69;;;16.66;97.56
69971;BME280;57301;50.328;8.542;2023-09-18T02:44:17;97789.97;;;16.70;98.15
69971;BME280;57301;50.328;8.542;2023-09-18T02:46:43;97787.59;;;16.93;97.41
69971;BME280;57301;50.328;8.542;2023-09-18T02:49:10;97769.75;;;16.99;97.16
69971;BME280;57301;50.328;8.542;2023-09-18T02:51:36;97784.31;;;16.91;97.25
69971;BME280;57301;50.328;8.542;2023-09-18T02:54:03;97772.69;;;16.91;96.65
69971;BME280;57301;50.328;8.542;2023-09-18T02:56:29;97760.47;;;16.95;96.37
69971;BME280;57301;50.328;8.542;2023-09-18T02:58:56;97748.69;;;16.89;96.95
69971;BME280;57301;50.328;8.542;2023-09-18T03:01:22;97733.03;;;17.11;96.10
69971;BME280;57301;50.328;8.542;2023-09-18T03:03:49;97748.41;;;17.04;96.92
69971;BME280;57301;50.328;8.542;2023-09-18T03:06:16;97745.75;;;16.98;97.11
69971;BME280;57301;50.328;8.542;2023-09-18T03:08:42;97741.91;;;17.18;96.50
69971;BME280;57301;50.328;8.542;2023-09-18T03:11:13;97729.47;;;17.62;96.21
69971;BME280;57301;50.328;8.542;2023-09-18T03:13:44;97734.94;;;18.12;94.16
69971;BME280;57301;50.328;8.542;2023-09-18T03:16:13;97724.66;;;18.21;93.55
69971;BME280;57301;50.328;8.542;2023-09-18T03:18:39;97702.97;;;18.52;91.75
69971;BME280;57301;50.328;8.542;2023-09-18T03:21:06;97703.47;;;18.86;89.91
69971;BME280;57301;50.328;8.542;2023-09-18T03:23:32;97686.22;;;18.87;89.73
69971;BME280;57301;50.328;8.542;2023-09-18T03:25:59;97701.66;;;18.98;88.98
69971;BME280;57301;50.328;8.542;2023-09-18T03:28:26;97699.56;;;19.00;88.71
69971;BME280;57301;50.328;8.542;2023-09-18T03:30:52;97688.97;;;18.99;88.46
69971;BME280;57301;50.328;8.542;2023-09-18T03:33:19;97683.44;;;19.24;87.21
69971;BME280;57301;50.328;8.542;2023-09-18T03:35:50;97673.22;;;19.26;87.28
69971;BME280;57301;50.328;8.542;2023-09-18T03:38:17;97665.81;;;19.21;87.43
69971;BME280;57301;50.328;8.542;2023-09-18T03:40:44;97669.44;;;19.15;88.02
69971;BME280;57301;50.328;8.542;2023-09-18T03:43:11;97670.38;;;19.21;87.55
69971;BME280;57301;50.328;8.542;2023-09-18T03:45:39;97672.41;;;19.25;87.55
69971;BME280;57301;50.328;8.542;2023-09-18T03:48:08;97673.47;;;19.24;87.46
69971;BME280;57301;50.328;8.542;2023-09-18T03:50:35;97670.16;;;19.22;87.51
69971;BME280;57301;50.328;8.542;2023-09-18T03:53:02;97671.63;;;19.37;86.41
69971;BME280;57301;50.328;8.542;2023-09-18T03:55:29;97678.56;;;19.44;86.70
69971;BME280;57301;50.328;8.542;2023-09-18T03:57:56;97673.81;;;19.58;85.94
69971;BME280;57301;50.328;8.542;2023-09-18T04:00:22;97681.94;;;19.28;87.68
69971;BME280;57301;50.328;8.542;2023-09-18T04:02:49;97675.00;;;19.32;87.02
69971;BME280;57301;50.328;8.542;2023-09-18T04:05:16;97665.84;;;19.33;87.44
69971;BME280;57301;50.328;8.542;2023-09-18T04:07:42;97670.31;;;19.27;87.58
69971;BME280;57301;50.328;8.542;2023-09-18T04:10:13;97663.47;;;19.25;87.85
69971;BME280;57301;50.328;8.542;2023-09-18T04:12:49;97663.13;;;19.21;85.88
69971;BME280;57301;50.328;8.542;2023-09-18T04:15:17;97664.34;;;19.37;85.97
69971;BME280;57301;50.328;8.542;2023-09-18T04:17:45;97656.47;;;19.36;85.41
69971;BME280;57301;50.328;8.542;2023-09-18T04:20:12;97652.34;;;19.45;84.56
69971;BME280;57301;50.328;8.542;2023-09-18T04:22:43;97650.72;;;19.44;83.66
69971;BME280;57301;50.328;8.542;2023-09-18T04:25:11;97654.19;;;19.63;82.20
69971;BME280;57301;50.328;8.542;2023-09-18T04:27:38;97655.03;;;19.75;81.43
69971;BME280;57301;50.328;8.542;2023-09-18T04:30:05;97657.59;;;19.58;82.69
69971;BME280;57301;50.328;8.542;2023-09-18T04:32:32;97659.97;;;19.66;82.68
69971;BME280;57301;50.328;8.542;2023-09-18T04:34:58;97669.75;;;19.79;81.84
69971;BME280;57301;50.328;8.542;2023-09-18T04:37:24;97681.44;;;19.91;80.90
69971;BME280;57301;50.328;8.542;2023-09-18T04:39:51;97684.47;;;19.83;80.76
69971;BME280;57301;50.328;8.542;2023-09-18T04:42:17;97690.38;;;19.92;80.65
69971;BME280;57301;50.328;8.542;2023-09-18T04:44:44;97672.81;;;19.94;80.37
69971;BME280;57301;50.328;8.542;2023-09-18T04:47:11;97669.09;;;19.95;80.11
69971;BME280;57301;50.328;8.542;2023-09-18T04:49:37;97675.91;;;19.98;80.29
69971;BME280;57301;50.328;8.542;2023-09-18T04:52:04;97675.66;;;19.99;79.99
69971;BME280;57301;50.328;8.542;2023-09-18T04:54:31;97673.31;;;20.03;80.41
69971;BME280;57301;50.328;8.542;2023-09-18T04:56:58;97660.72;;;19.85;81.36
69971;BME280;57301;50.328;8.542;2023-09-18T04:59:24;97654.00;;;19.99;80.81
69971;BME280;57301;50.328;8.542;2023-09-18T05:01:51;97645.06;;;19.87;81.41
69971;BME280;57301;50.328;8.542;2023-09-18T05:04:17;97635.16;;;19.81;82.11
69971;BME280;57301;50.328;8.542;2023-09-18T05:06:44;97633.84;;;19.60;83.29
69971;BME280;57301;50.328;8.542;2023-09-18T05:09:11;97613.03;;;19.61;83.73
69971;BME280;57301;50.328;8.542;2023-09-18T05:11:37;97600.19;;;19.56;83.62
69971;BME280;57301;50.328;8.542;2023-09-18T05:14:04;97598.81;;;19.65;83.30
69971;BME280;57301;50.328;8.542;2023-09-18T05:16:32;97613.03;;;19.61;84.30
69971;BME280;57301;50.328;8.542;2023-09-18T05:19:01;97643.75;;;19.66;83.89
69971;BME280;57301;50.328;8.542;2023-09-18T05:21:28;97634.38;;;19.50;85.04
69971;BME280;57301;50.328;8.542;2023-09-18T05:23:56;97646.84;;;19.40;85.64
69971;BME280;57301;50.328;8.542;2023-09-18T05:26:22;97652.84;;;19.42;86.07
69971;BME280;57301;50.328;8.542;2023-09-18T05:28:51;97660.38;;;19.40;86.27
69971;BME280;57301;50.328;8.542;2023-09-18T05:31:18;97665.25;;;19.31;86.84
69971;BME280;57301;50.328;8.542;2023-09-18T05:33:44;97670.75;;;19.24;87.36
69971;BME280;57301;50.328;8.542;2023-09-18T05:36:12;97675.56;;;19.22;87.55
69971;BME280;57301;50.328;8.542;2023-09-18T05:38:39;97678.63;;;19.26;87.52
69971;BME280;57301;50.328;8.542;2023-09-18T05:41:05;97669.69;;;19.25;87.89
69971;BME280;57301;50.328;8.542;2023-09-18T05:43:32;97671.81;;;19.23;88.21
69971;BME280;57301;50.328;8.542;2023-09-18T05:45:58;97670.25;;;19.16;88.09
69971;BME280;57301;50.328;8.542;2023-09-18T05:48:25;97668.19;;;19.29;86.93
69971;BME280;57301;50.328;8.542;2023-09-18T05:50:52;97669.34;;;19.52;86.09
69971;BME280;57301;50.328;8.542;2023-09-18T05:53:20;97664.72;;;19.41;86.79
69971;BME280;57301;50.328;8.542;2023-09-18T05:55:47;97680.00;;;19.47;86.53
69971;BME280;57301;50.328;8.542;2023-09-18T05:58:14;97686.88;;;19.31;87.08
69971;BME280;57301;50.328;8.542;2023-09-18T06:00:40;97674.25;;;19.55;85.55
69971;BME280;57301;50.328;8.542;2023-09-18T06:03:07;97672.06;;;19.64;84.06
69971;BME280;57301;50.328;8.542;2023-09-18T06:05:36;97670.03;;;19.89;82.55
69971;BME280;57301;50.328;8.542;2023-09-18T06:08:02;97661.16;;;19.82;82.03
69971;BME280;57301;50.328;8.542;2023-09-18T06:10:29;97659.66;;;19.98;81.27
69971;BME280;57301;50.328;8.542;2023-09-18T06:12:55;97654.50;;;19.96;80.49
69971;BME280;57301;50.328;8.542;2023-09-18T06:15:22;97664.03;;;20.10;80.01
69971;BME280;57301;50.328;8.542;2023-09-18T06:17:48;97685.69;;;20.10;80.01
69971;BME280;57301;50.328;8.542;2023-09-18T06:20:15;97670.38;;;20.04;79.40
69971;BME280;57301;50.328;8.542;2023-09-18T06:22:42;97665.44;;;20.25;79.11
69971;BME280;57301;50.328;8.542;2023-09-18T06:25:09;97659.19;;;20.12;78.87
69971;BME280;57301;50.328;8.542;2023-09-18T06:27:37;97671.56;;;20.20;78.36
69971;BME280;57301;50.328;8.542;2023-09-18T06:30:05;97667.91;;;20.15;78.55
69971;BME280;57301;50.328;8.542;2023-09-18T06:32:32;97676.59;;;20.05;78.63
69971;BME280;57301;50.328;8.542;2023-09-18T06:35:00;97663.44;;;20.08;79.36
69971;BME280;57301;50.328;8.542;2023-09-18T06:37:26;97669.44;;;20.22;78.56
69971;BME280;57301;50.328;8.542;2023-09-18T06:39:53;97667.19;;;20.19;78.93
69971;BME280;57301;50.328;8.542;2023-09-18T06:42:19;97664.16;;;20.16;77.86
69971;BME280;57301;50.328;8.542;2023-09-18T06:44:46;97655.91;;;20.22;77.32
69971;BME280;57301;50.328;8.542;2023-09-18T06:47:13;97654.84;;;20.23;76.54
69971;BME280;57301;50.328;8.542;2023-09-18T06:49:41;97667.31;;;20.36;76.88
69971;BME280;57301;50.328;8.542;2023-09-18T06:52:09;97670.25;;;20.23;76.36
69971;BME280;57301;50.328;8.542;2023-09-18T06:54:35;97673.91;;;20.28;76.70
69971;BME280;57301;50.328;8.542;2023-09-18T06:57:03;97670.63;;;20.38;74.52
69971;BME280;57301;50.328;8.542;2023-09-18T06:59:29;97664.50;;;20.54;74.19
69971;BME280;57301;50.328;8.542;2023-09-18T07:01:57;97664.75;;;20.53;73.90
69971;BME280;57301;50.328;8.542;2023-09-18T07:04:24;97682.31;;;20.50;73.07
69971;BME280;57301;50.328;8.542;2023-09-18T07:06:51;97685.09;;;20.55;72.23
69971;BME280;57301;50.328;8.542;2023-09-18T07:09:19;97687.78;;;20.67;72.54
69971;BME280;57301;50.328;8.542;2023-09-18T07:11:49;97675.44;;;20.71;71.56
69971;BME280;57301;50.328;8.542;2023-09-18T07:14:15;97686.00;;;20.84;71.85
69971;BME280;57301;50.328;8.542;2023-09-18T07:16:42;97685.78;;;20.74;72.09
69971;BME280;57301;50.328;8.542;2023-09-18T07:19:09;97689.53;;;20.85;72.11
69971;BME280;57301;50.328;8.542;2023-09-18T07:21:38;97687.31;;;20.82;72.87
69971;BME280;57301;50.328;8.542;2023-09-18T07:24:06;97679.88;;;20.89;72.62
69971;BME280;57301;50.328;8.542;2023-09-18T07:26:33;97684.22;;;20.90;72.48
69971;BME280;57301;50.328;8.542;2023-09-18T07:29:00;97697.28;;;20.93;72.35
69971;BME280;57301;50.328;8.542;2023-09-18T07:31:28;97697.09;;;20.83;72.66
69971;BME280;57301;50.328;8.542;2023-09-18T07:33:54;97705.81;;;20.73;72.18
69971;BME280;57301;50.328;8.542;2023-09-18T07:36:21;97715.38;;;20.76;72.39
69971;BME280;57301;50.328;8.542;2023-09-18T07:38:48;97705.22;;;20.83;72.96
69971;BME280;57301;50.328;8.542;2023-09-18T07:41:14;97718.78;;;20.71;72.60
69971;BME280;57301;50.328;8.542;2023-09-18T07:43:42;97716.06;;;20.83;72.63
69971;BME280;57301;50.328;8.542;2023-09-18T07:46:08;97712.53;;;20.71;72.84
69971;BME280;57301;50.328;8.542;2023-09-18T07:48:35;97715.81;;;20.73;72.87
69971;BME280;57301;50.328;8.542;2023-09-18T07:51:01;97716.19;;;20.76;72.67
69971;BME280;57301;50.328;8.542;2023-09-18T07:53:28;97709.44;;;20.90;72.68
69971;BME280;57301;50.328;8.542;2023-09-18T07:55:58;97718.41;;;20.67;72.64
69971;BME280;57301;50.328;8.542;2023-09-18T07:58:25;97702.16;;;20.79;72.67
69971;BME280;57301;50.328;8.542;2023-09-18T08:00:55;97714.84;;;20.90;72.77
69971;BME280;57301;50.328;8.542;2023-09-18T08:03:24;97712.03;;;20.85;72.21
69971;BME280;57301;50.328;8.542;2023-09-18T08:05:54;97722.97;;;21.02;72.31
69971;BME280;57301;50.328;8.542;2023-09-18T08:08:21;97711.03;;;21.03;71.75
69971;BME280;57301;50.328;8.542;2023-09-18T08:10:48;97723.84;;;21.19;71.60
69971;BME280;57301;50.328;8.542;2023-09-18T08:13:15;97729.28;;;21.19;71.19
69971;BME280;57301;50.328;8.542;2023-09-18T08:15:41;97739.44;;;21.12;71.80
69971;BME280;57301;50.328;8.542;2023-09-18T08:18:08;97747.19;;;21.32;71.05
69971;BME280;57301;50.328;8.542;2023-09-18T08:20:34;97739.44;;;21.81;69.63
69971;BME280;57301;50.328;8.542;2023-09-18T08:23:03;97753.88;;;21.70;69.54
69971;BME280;57301;50.328;8.542;2023-09-18T08:25:32;97748.56;;;21.75;69.32
69971;BME280;57301;50.328;8.542;2023-09-18T08:27:58;97749.63;;;21.45;70.70
69971;BME280;57301;50.328;8.542;2023-09-18T08:30:25;97748.94;;;21.38;70.19
69971;BME280;57301;50.328;8.542;2023-09-18T08:32:51;97743.06;;;21.58;70.24
69971;BME280;57301;50.328;8.542;2023-09-18T08:35:18;97747.56;;;21.81;69.59
69971;BME280;57301;50.328;8.542;2023-09-18T08:37:45;97746.66;;;21.76;69.66
69971;BME280;57301;50.328;8.542;2023-09-18T08:40:12;97737.53;;;21.82;68.67
69971;BME280;57301;50.328;8.542;2023-09-18T08:42:46;97749.16;;;21.94;68.58
69971;BME280;57301;50.328;8.542;2023-09-18T08:47:51;97753.19;;;22.08;67.57
69971;BME280;57301;50.328;8.542;2023-09-18T08:50:19;97752.13;;;21.92;68.76
69971;BME280;57301;50.328;8.542;2023-09-18T08:52:47;97752.59;;;21.89;68.99
69971;BME280;57301;50.328;8.542;2023-09-18T08:55:14;97757.63;;;21.81;69.34
69971;BME280;57301;50.328;8.542;2023-09-18T08:57:41;97750.97;;;21.60;70.11
69971;BME280;57301;50.328;8.542;2023-09-18T09:00:10;97758.25;;;21.71;70.07
69971;BME280;57301;50.328;8.542;2023-09-18T09:02:38;97764.31;;;21.61;70.37
69971;BME280;57301;50.328;8.542;2023-09-18T09:05:05;97765.50;;;21.82;70.10
69971;BME280;57301;50.328;8.542;2023-09-18T09:07:32;97764.78;;;21.58;70.53
69971;BME280;57301;50.328;8.542;2023-09-18T09:09:58;97771.91;;;21.76;69.92
69971;BME280;57301;50.328;8.542;2023-09-18T09:15:13;97765.47;;;21.25;71.01
69971;BME280;57301;50.328;8.542;2023-09-18T09:17:41;97769.38;;;21.58;70.51
69971;BME280;57301;50.328;8.542;2023-09-18T09:20:09;97768.75;;;21.39;70.76
69971;BME280;57301;50.328;8.542;2023-09-18T09:22:38;97768.41;;;21.24;71.65
69971;BME280;57301;50.328;8.542;2023-09-18T09:25:33;97759.34;;;21.18;72.34
69971;BME280;57301;50.328;8.542;2023-09-18T09:28:04;97762.00;;;21.41;71.46
69971;BME280;57301;50.328;8.542;2023-09-18T09:30:33;97765.66;;;20.95;72.74
69971;BME280;57301;50.328;8.542;2023-09-18T09:33:00;97765.66;;;20.95;72.96
69971;BME280;57301;50.328;8.542;2023-09-18T09:35:31;97767.72;;;21.05;72.38
69971;BME280;57301;50.328;8.542;2023-09-18T09:38:00;97752.25;;;21.17;71.92
69971;BME280;57301;50.328;8.542;2023-09-18T09:40:29;97769.94;;;21.43;71.10
69971;BME280;57301;50.328;8.542;2023-09-18T09:42:57;97776.66;;;21.17;71.60
69971;BME280;57301;50.328;8.542;2023-09-18T09:45:28;97776.09;;;21.15;71.40
69971;BME280;57301;50.328;8.542;2023-09-18T09:47:57;97777.13;;;21.26;71.79
69971;BME280;57301;50.328;8.542;2023-09-18T09:50:24;97793.41;;;21.26;71.21
69971;BME280;57301;50.328;8.542;2023-09-18T09:52:53;97795.78;;;21.34;71.22
69971;BME280;57301;50.328;8.542;2023-09-18T09:55:29;97794.84;;;20.93;72.72
69971;BME280;57301;50.328;8.542;2023-09-18T09:57:58;97799.78;;;21.19;71.80
69971;BME280;57301;50.328;8.542;2023-09-18T10:00:32;97801.94;;;20.94;72.85
69971;BME280;57301;50.328;8.542;2023-09-18T10:03:17;97814.19;;;21.08;72.47
69971;BME280;57301;50.328;8.542;2023-09-18T10:05:46;97829.19;;;20.87;72.77
69971;BME280;57301;50.328;8.542;2023-09-18T10:08:23;97827.16;;;20.83;73.40
69971;BME280;57301;50.328;8.542;2023-09-18T10:10:53;97813.81;;;21.05;72.30
69971;BME280;57301;50.328;8.542;2023-09-18T10:15:56;97801.59;;;21.54;70.50
69971;BME280;57301;50.328;8.542;2023-09-18T10:21:35;97807.34;;;21.69;69.95
69971;BME280;57301;50.328;8.542;2023-09-18T10:24:28;97813.78;;;21.40;70.68
69971;BME280;57301;50.328;8.542;2023-09-18T10:26:59;97843.50;;;21.11;71.63
69971;BME280;57301;50.328;8.542;2023-09-18T10:29:28;97847.16;;;21.17;71.32
69971;BME280;57301;50.328;8.542;2023-09-18T10:31:56;97833.03;;;21.27;70.77
69971;BME280;57301;50.328;8.542;2023-09-18T10:34:24;97815.75;;;21.56;70.25
69971;BME280;57301;50.328;8.542;2023-09-18T10:36:53;97814.50;;;21.76;69.14
69971;BME280;57301;50.328;8.542;2023-09-18T10:39:28;97809.66;;;21.49;69.17
69971;BME280;57301;50.328;8.542;2023-09-18T10:42:00;97820.88;;;21.41;70.03
69971;BME280;57301;50.328;8.542;2023-09-18T10:44:28;97816.34;;;21.58;68.85
69971;BME280;57301;50.328;8.542;2023-09-18T10:46:56;97814.03;;;21.27;69.93
69971;BME280;57301;50.328;8.542;2023-09-18T10:49:27;97811.31;;;21.50;69.70
69971;BME280;57301;50.328;8.542;2023-09-18T10:51:55;97818.38;;;21.28;70.27
69971;BME280;57301;50.328;8.542;2023-09-18T10:54:24;97806.97;;;21.66;69.33
69971;BME280;57301;50.328;8.542;2023-09-18T10:56:52;97808.38;;;21.40;70.25
69971;BME280;57301;50.328;8.542;2023-09-18T10:59:20;97806.38;;;21.76;69.61
69971;BME280;57301;50.328;8.542;2023-09-18T11:01:49;97808.78;;;21.89;68.32
69971;BME280;57301;50.328;8.542;2023-09-18T11:04:20;97808.00;;;22.05;68.02
69971;BME280;57301;50.328;8.542;2023-09-18T11:07:05;97797.69;;;22.36;67.03
69971;BME280;57301;50.328;8.542;2023-09-18T11:09:41;97793.22;;;22.46;66.21
69971;BME280;57301;50.328;8.542;2023-09-18T11:12:09;97793.22;;;22.46;67.19
69971;BME280;57301;50.328;8.542;2023-09-18T11:17:39;97805.16;;;21.83;67.76
69971;BME280;57301;50.328;8.542;2023-09-18T11:22:36;97819.22;;;21.80;68.42
69971;BME280;57301;50.328;8.542;2023-09-18T11:28:22;97826.78;;;21.38;70.14
69971;BME280;57301;50.328;8.542;2023-09-18T11:30:53;97830.72;;;21.59;69.91
69971;BME280;57301;50.328;8.542;2023-09-18T11:33:38;97820.94;;;21.58;69.42
69971;BME280;57301;50.328;8.542;2023-09-18T11:36:11;97825.78;;;21.56;69.26
69971;BME280;57301;50.328;8.542;2023-09-18T11:38:55;97813.09;;;21.44;70.17
69971;BME280;57301;50.328;8.542;2023-09-18T11:41:27;97816.47;;;21.92;68.88
69971;BME280;57301;50.328;8.542;2023-09-18T11:46:41;97836.13;;;22.11;67.95
69971;BME280;57301;50.328;8.542;2023-09-18T11:49:11;97833.75;;;21.74;68.73
69971;BME280;57301;50.328;8.542;2023-09-18T11:51:38;97824.97;;;21.55;69.31
69971;BME280;57301;50.328;8.542;2023-09-18T11:54:06;97821.13;;;21.96;68.84
69971;BME280;57301;50.328;8.542;2023-09-18T11:56:33;97820.22;;;21.91;68.87
69971;BME280;57301;50.328;8.542;2023-09-18T11:59:00;97813.53;;;21.53;69.77
69971;BME280;57301;50.328;8.542;2023-09-18T12:01:31;97811.25;;;21.90;68.76
69971;BME280;57301;50.328;8.542;2023-09-18T12:04:03;97827.06;;;21.65;68.88
69971;BME280;57301;50.328;8.542;2023-09-18T12:06:36;97814.19;;;21.60;69.56
69971;BME280;57301;50.328;8.542;2023-09-18T12:09:03;97806.06;;;21.60;68.87
69971;BME280;57301;50.328;8.542;2023-09-18T12:11:33;97797.69;;;21.90;68.81
69971;BME280;57301;50.328;8.542;2023-09-18T12:14:04;97796.19;;;21.83;68.19
69971;BME280;57301;50.328;8.542;2023-09-18T12:16:37;97795.78;;;22.19;66.80
69971;BME280;57301;50.328;8.542;2023-09-18T12:19:07;97810.03;;;22.10;66.78
69971;BME280;57301;50.328;8.542;2023-09-18T12:21:41;97809.97;;;21.93;68.10
69971;BME280;57301;50.328;8.542;2023-09-18T12:24:22;97789.44;;;22.14;66.68
69971;BME280;57301;50.328;8.542;2023-09-18T12:26:50;97785.63;;;22.82;65.16
69971;BME280;57301;50.328;8.542;2023-09-18T12:29:19;97793.56;;;23.22;63.68
69971;BME280;57301;50.328;8.542;2023-09-18T12:31:46;97802.31;;;23.46;62.33
69971;BME280;57301;50.328;8.542;2023-09-18T12:34:19;97794.94;;;23.91;60.70
69971;BME280;57301;50.328;8.542;2023-09-18T12:36:50;97792.16;;;24.39;58.35
69971;BME280;57301;50.328;8.542;2023-09-18T12:39:17;97789.41;;;25.77;54.18
69971;BME280;57301;50.328;8.542;2023-09-18T12:41:47;97779.91;;;27.01;50.74
69971;BME280;57301;50.328;8.542;2023-09-18T12:44:14;97775.41;;;27.41;49.24
69971;BME280;57301;50.328;8.542;2023-09-18T12:46:43;97773.31;;;27.88;48.97
69971;BME280;57301;50.328;8.542;2023-09-18T12:51:43;97776.22;;;28.75;45.93
69971;BME280;57301;50.328;8.542;2023-09-18T12:54:10;97783.03;;;29.59;44.42
69971;BME280;57301;50.328;8.542;2023-09-18T12:56:40;97785.81;;;29.06;44.27
69971;BME280;57301;50.328;8.542;2023-09-18T12:59:08;97781.06;;;28.83;45.54
69971;BME280;57301;50.328;8.542;2023-09-18T13:01:40;97790.50;;;28.43;46.07
69971;BME280;57301;50.328;8.542;2023-09-18T13:04:11;97789.78;;;27.82;46.59
69971;BME280;57301;50.328;8.542;2023-09-18T13:06:39;97793.13;;;27.64;46.44
69971;BME280;57301;50.328;8.542;2023-09-18T13:09:16;97796.03;;;27.18;48.07
69971;BME280;57301;50.328;8.542;2023-09-18T13:11:56;97802.09;;;26.34;50.22
69971;BME280;57301;50.328;8.542;2023-09-18T13:14:26;97802.63;;;26.10;51.21
69971;BME280;57301;50.328;8.542;2023-09-18T13:16:53;97808.66;;;26.28;52.17
69971;BME280;57301;50.328;8.542;2023-09-18T13:19:26;97796.31;;;25.32;52.92
69971;BME280;57301;50.328;8.542;2023-09-18T13:21:52;97805.97;;;24.65;54.42
69971;BME280;57301;50.328;8.542;2023-09-18T13:24:29;97791.97;;;24.19;55.83
69971;BME280;57301;50.328;8.542;2023-09-18T13:26:57;97792.16;;;24.77;54.52
69971;BME280;57301;50.328;8.542;2023-09-18T13:29:25;97782.72;;;24.52;54.73
69971;BME280;57301;50.328;8.542;2023-09-18T13:31:52;97784.28;;;24.80;53.97